Time;durP1;ratioP1;P1;durP2;ratioP2;P2;SDS_P1;SDS_P2;PMS_P1;PMS_P2;Temp;Humidity;BMP_temperature;BMP_pressure;BME280_temperature;BME280_humidity;BME280_pressure;Samples;Min_cycle;Max_cycle;Signal;HPM_P1;HPM_P2
2022/07/28 00:00:32;;;;;;;3.00;1.80;;;16.70;99.90;;;;;;5054966;28;20115;-57
2022/07/28 00:02:59;;;;;;;3.72;1.80;;;16.70;99.90;;;;;;5054689;28;20025;-57
2022/07/28 00:05:24;;;;;;;2.50;1.75;;;16.70;99.90;;;;;;5054685;28;20055;-57
2022/07/28 00:07:50;;;;;;;3.75;2.15;;;16.60;99.90;;;;;;5054782;28;20025;-57
2022/07/28 00:10:16;;;;;;;2.28;1.60;;;16.50;99.90;;;;;;5054660;28;20033;-57
2022/07/28 00:12:42;;;;;;;2.10;1.65;;;16.50;99.90;;;;;;5054827;28;20029;-57
2022/07/28 00:15:09;;;;;;;2.67;1.80;;;16.40;99.90;;;;;;5054442;28;20478;-57
2022/07/28 00:17:34;;;;;;;2.88;1.90;;;16.30;99.90;;;;;;5054085;28;20220;-57
2022/07/28 00:20:00;;;;;;;3.05;1.85;;;16.30;99.90;;;;;;5054313;28;20090;-57
2022/07/28 00:22:26;;;;;;;3.97;2.08;;;16.40;99.90;;;;;;5054646;28;20055;-57
2022/07/28 00:24:51;;;;;;;3.53;1.90;;;16.30;99.90;;;;;;5054235;28;20060;-57
2022/07/28 00:27:17;;;;;;;2.95;1.85;;;16.30;99.90;;;;;;5054257;28;20021;-56
2022/07/28 00:29:43;;;;;;;3.78;1.80;;;16.20;99.90;;;;;;5053297;28;20040;-57
2022/07/28 00:32:09;;;;;;;3.35;2.08;;;16.20;99.90;;;;;;5053863;28;20031;-57
2022/07/28 00:34:35;;;;;;;5.25;1.80;;;16.20;99.90;;;;;;5054165;28;20032;-58
2022/07/28 00:37:01;;;;;;;4.78;2.10;;;16.20;99.90;;;;;;5054387;28;20104;-57
2022/07/28 00:39:26;;;;;;;4.75;2.00;;;16.10;99.90;;;;;;5052684;28;20040;-58
2022/07/28 00:41:52;;;;;;;3.20;1.92;;;16.00;99.90;;;;;;5053713;28;20076;-58
2022/07/28 00:44:18;;;;;;;3.25;1.80;;;15.90;99.90;;;;;;5054450;28;20043;-57
2022/07/28 00:46:44;;;;;;;2.35;1.80;;;15.90;99.90;;;;;;5053451;28;20024;-57
2022/07/28 00:49:09;;;;;;;3.35;1.95;;;15.90;99.90;;;;;;5053788;28;20933;-57
2022/07/28 00:51:35;;;;;;;2.85;1.73;;;15.90;99.90;;;;;;5054044;28;20024;-57
2022/07/28 00:54:02;;;;;;;3.38;2.17;;;15.90;99.90;;;;;;5053315;28;20033;-57
2022/07/28 00:56:28;;;;;;;2.95;1.85;;;15.90;99.90;;;;;;5053510;28;20029;-57
2022/07/28 00:58:54;;;;;;;2.63;1.80;;;15.80;99.90;;;;;;5053831;28;20031;-57
2022/07/28 01:01:21;;;;;;;4.53;2.28;;;15.70;99.90;;;;;;5053466;28;20062;-57
2022/07/28 01:03:54;;;;;;;3.88;2.13;;;15.60;99.90;;;;;;5053966;28;20033;-57
2022/07/28 01:06:35;;;;;;;3.55;2.05;;;15.50;99.90;;;;;;5053774;28;20024;-57
2022/07/28 01:09:16;;;;;;;3.63;2.40;;;15.40;99.90;;;;;;5053510;28;20037;-57
2022/07/28 01:11:58;;;;;;;3.08;2.40;;;15.50;99.90;;;;;;5053299;28;20064;-57
2022/07/28 01:14:44;;;;;;;4.18;2.42;;;15.40;99.90;;;;;;5053160;28;20025;-58
2022/07/28 01:17:18;;;;;;;3.17;2.20;;;15.20;99.90;;;;;;5053356;28;20033;-57
2022/07/28 01:20:15;;;;;;;3.08;2.25;;;15.20;99.90;;;;;;5053284;28;20414;-56
2022/07/28 01:23:08;;;;;;;3.72;2.47;;;15.20;99.90;;;;;;5053004;28;20033;-57
2022/07/28 01:25:33;;;;;;;3.85;2.35;;;15.20;99.90;;;;;;5052670;28;20037;-57
2022/07/28 01:28:20;;;;;;;4.57;2.55;;;15.20;99.90;;;;;;5053212;28;20082;-58
2022/07/28 01:30:52;;;;;;;3.50;2.40;;;14.90;99.90;;;;;;5053073;28;20036;-57
2022/07/28 01:33:48;;;;;;;4.47;2.28;;;14.90;99.90;;;;;;5053065;28;20056;-56
2022/07/28 01:36:19;;;;;;;5.50;2.45;;;15.00;99.90;;;;;;5053023;28;20017;-57
2022/07/28 01:38:47;;;;;;;3.30;2.35;;;15.00;99.90;;;;;;5052783;28;20029;-57
2022/07/28 01:41:20;;;;;;;3.72;2.50;;;15.00;99.90;;;;;;5052981;28;20021;-58
2022/07/28 01:43:53;;;;;;;5.13;2.40;;;15.00;99.90;;;;;;5052190;28;20033;-57
2022/07/28 01:46:20;;;;;;;3.60;2.20;;;15.00;99.90;;;;;;5053234;28;20390;-58
2022/07/28 01:48:47;;;;;;;3.30;2.33;;;14.90;99.90;;;;;;5052855;28;20035;-57
2022/07/28 01:51:15;;;;;;;5.20;3.05;;;14.90;99.90;;;;;;5052731;28;20028;-57
2022/07/28 01:53:43;;;;;;;4.30;2.40;;;14.90;99.90;;;;;;5052832;28;20549;-57
2022/07/28 01:56:10;;;;;;;3.15;2.25;;;14.80;99.90;;;;;;5052840;28;20028;-57
2022/07/28 01:58:37;;;;;;;5.53;2.75;;;14.80;99.90;;;;;;5052272;28;20029;-58
2022/07/28 02:01:04;;;;;;;3.58;2.50;;;14.80;99.90;;;;;;5051387;28;20048;-57
2022/07/28 02:03:33;;;;;;;3.58;2.22;;;14.90;99.90;;;;;;5052145;28;20060;-57
2022/07/28 02:06:01;;;;;;;3.40;2.50;;;15.00;99.90;;;;;;5050673;28;20021;-57
2022/07/28 02:08:31;;;;;;;4.13;3.00;;;15.00;99.90;;;;;;5052287;28;20548;-57
2022/07/28 02:13:44;;;;;;;4.97;3.33;;;14.90;99.90;;;;;;5052243;28;20028;-57
2022/07/28 02:16:13;;;;;;;5.53;3.17;;;14.90;99.90;;;;;;5052366;28;20083;-57
2022/07/28 02:18:40;;;;;;;6.90;3.50;;;14.90;99.90;;;;;;5052218;28;20505;-57
2022/07/28 02:21:07;;;;;;;5.93;3.40;;;14.90;99.90;;;;;;5052094;28;20508;-57
2022/07/28 02:23:34;;;;;;;6.03;3.60;;;14.90;99.90;;;;;;5052394;28;20114;-57
2022/07/28 02:26:03;;;;;;;4.88;3.55;;;14.90;99.90;;;;;;5052418;28;20406;-57
2022/07/28 02:28:29;;;;;;;8.02;3.95;;;14.90;99.90;;;;;;5051717;28;20029;-57
2022/07/28 02:31:03;;;;;;;7.47;4.00;;;14.90;99.90;;;;;;5052080;28;20029;-57
2022/07/28 02:33:31;;;;;;;;;;;14.70;99.90;;;;;;5052378;28;20448;-57
2022/07/28 02:36:10;;;;;;;4.72;3.40;;;14.60;99.90;;;;;;5052144;28;19909;-57
2022/07/28 02:38:42;;;;;;;4.97;4.03;;;14.70;99.90;;;;;;5052238;28;20025;-57
2022/07/28 02:41:16;;;;;;;5.10;3.95;;;14.70;99.90;;;;;;5051461;28;20031;-57
2022/07/28 02:43:45;;;;;;;6.85;4.70;;;14.80;99.90;;;;;;5051597;28;20455;-57
2022/07/28 02:46:15;;;;;;;6.55;4.60;;;14.80;99.90;;;;;;5051947;28;20021;-57
2022/07/28 02:48:45;;;;;;;7.47;4.43;;;14.70;99.90;;;;;;5051789;28;20103;-57
2022/07/28 02:51:12;;;;;;;6.25;3.97;;;14.70;99.90;;;;;;5051815;28;20455;-57
2022/07/28 02:53:38;;;;;;;6.72;4.50;;;14.80;99.90;;;;;;5051951;28;20370;-56
2022/07/28 02:56:05;;;;;;;6.82;4.35;;;14.80;99.90;;;;;;5051340;28;20053;-57
2022/07/28 02:58:32;;;;;;;8.25;4.22;;;14.70;99.90;;;;;;5050477;28;20037;-57
2022/07/28 03:00:59;;;;;;;5.78;4.18;;;14.70;99.90;;;;;;5051657;28;20108;-57
2022/07/28 03:03:25;;;;;;;8.23;4.15;;;14.70;99.90;;;;;;5051968;28;20477;-57
2022/07/28 03:05:51;;;;;;;6.82;4.30;;;14.60;99.90;;;;;;5051606;28;20069;-57
2022/07/28 03:08:17;;;;;;;5.43;4.18;;;14.70;99.90;;;;;;5051545;28;20052;-57
2022/07/28 03:10:43;;;;;;;5.70;4.38;;;14.70;99.90;;;;;;5051380;28;20547;-57
2022/07/28 03:13:09;;;;;;;6.43;4.03;;;14.70;99.90;;;;;;5051508;28;20025;-57
2022/07/28 03:15:36;;;;;;;5.53;4.13;;;14.70;99.90;;;;;;5052467;28;20490;-55
2022/07/28 03:18:04;;;;;;;4.75;4.10;;;14.60;99.90;;;;;;5055474;28;20067;-55
2022/07/28 03:20:30;;;;;;;4.90;3.65;;;14.70;99.90;;;;;;5055832;28;20397;-55
2022/07/28 03:22:57;;;;;;;6.30;3.95;;;14.70;99.90;;;;;;5055367;28;20021;-56
2022/07/28 03:25:34;;;;;;;6.63;4.25;;;14.70;99.90;;;;;;5054994;28;20080;-57
2022/07/28 03:28:01;;;;;;;6.53;4.20;;;14.70;99.90;;;;;;5055430;28;20439;-57
2022/07/28 03:30:33;;;;;;;5.50;3.83;;;14.70;99.90;;;;;;5054425;28;20107;-56
2022/07/28 03:33:01;;;;;;;5.53;3.65;;;14.70;99.90;;;;;;5054894;28;20021;-56
2022/07/28 03:35:30;;;;;;;4.22;3.65;;;14.70;99.90;;;;;;5055339;28;20032;-56
2022/07/28 03:38:06;;;;;;;7.38;3.88;;;14.60;99.90;;;;;;5054988;28;20025;-56
2022/07/28 03:40:33;;;;;;;6.40;4.50;;;14.60;99.90;;;;;;5054614;28;20037;-56
2022/07/28 03:43:06;;;;;;;8.35;4.18;;;14.60;99.90;;;;;;5054603;28;20102;-56
2022/07/28 03:45:33;;;;;;;8.05;4.63;;;14.50;99.90;;;;;;5054913;28;20051;-56
2022/07/28 03:47:59;;;;;;;8.57;5.07;;;14.40;99.90;;;;;;5053591;28;20478;-56
2022/07/28 03:50:28;;;;;;;6.82;4.03;;;14.40;99.90;;;;;;5054727;28;20021;-56
2022/07/28 03:52:55;;;;;;;9.18;4.63;;;14.50;99.90;;;;;;5054934;28;20025;-56
2022/07/28 03:55:21;;;;;;;6.45;4.32;;;14.50;99.90;;;;;;5054426;28;20446;-56
2022/07/28 03:57:47;;;;;;;5.85;4.40;;;14.50;99.90;;;;;;5054769;28;20104;-56
2022/07/28 04:00:15;;;;;;;5.50;4.40;;;14.50;99.90;;;;;;5054708;28;20448;-56
2022/07/28 04:02:42;;;;;;;5.80;4.50;;;14.50;99.90;;;;;;5054763;28;20025;-56
2022/07/28 04:05:12;;;;;;;5.82;4.20;;;14.40;99.90;;;;;;5054414;28;20032;-56
2022/07/28 04:07:39;;;;;;;5.72;4.38;;;14.30;99.90;;;;;;5054368;28;20029;-55
2022/07/28 04:10:10;;;;;;;4.63;4.10;;;14.30;99.90;;;;;;5054585;28;20021;-56
2022/07/28 04:12:54;;;;;;;9.13;4.30;;;14.40;99.90;;;;;;5053250;28;20135;-56
2022/07/28 04:15:20;;;;;;;;;;;14.30;99.90;;;;;;5054909;28;20421;-56
2022/07/28 04:17:49;;;;;;;7.78;4.00;;;14.30;99.90;;;;;;5054222;28;19910;-56
2022/07/28 04:20:16;;;;;;;6.75;4.10;;;14.40;99.90;;;;;;5054507;28;20521;-56
2022/07/28 04:22:44;;;;;;;8.07;4.00;;;14.40;99.90;;;;;;5053757;28;20033;-56
2022/07/28 04:25:11;;;;;;;7.00;4.05;;;14.30;99.90;;;;;;5054140;28;20529;-57
2022/07/28 04:27:37;;;;;;;5.82;4.00;;;14.20;99.90;;;;;;5053165;28;20016;-57
2022/07/28 04:30:16;;;;;;;5.13;3.92;;;14.20;99.90;;;;;;5054077;28;20472;-56
2022/07/28 04:32:46;;;;;;;5.78;4.07;;;14.10;99.90;;;;;;5054294;28;20039;-56
2022/07/28 04:35:12;;;;;;;5.13;3.85;;;14.20;99.90;;;;;;5052997;28;20025;-56
2022/07/28 04:37:38;;;;;;;4.43;3.70;;;14.20;99.90;;;;;;5053501;28;20021;-56
2022/07/28 04:40:06;;;;;;;6.20;3.72;;;14.20;99.90;;;;;;5053885;28;20035;-57
2022/07/28 04:42:32;;;;;;;8.40;4.00;;;14.20;99.90;;;;;;5053651;28;20037;-57
2022/07/28 04:44:58;;;;;;;5.28;4.07;;;14.20;99.90;;;;;;5053699;28;20037;-57
2022/07/28 04:47:24;;;;;;;8.57;4.15;;;14.00;99.90;;;;;;5053728;28;20017;-58
2022/07/28 04:49:50;;;;;;;4.60;3.95;;;13.90;99.90;;;;;;5053677;28;20032;-57
2022/07/28 04:52:17;;;;;;;6.80;3.85;;;14.00;99.90;;;;;;5053367;28;20375;-57
2022/07/28 04:54:44;;;;;;;5.93;3.47;;;13.90;99.90;;;;;;5053585;28;20100;-57
2022/07/28 04:57:10;;;;;;;7.57;3.65;;;13.90;99.90;;;;;;5053655;28;20036;-57
2022/07/28 04:59:36;;;;;;;7.25;4.05;;;13.90;99.90;;;;;;5053371;28;20028;-57
2022/07/28 05:02:02;;;;;;;5.82;3.65;;;13.80;99.90;;;;;;5053893;28;20032;-57
2022/07/28 05:04:28;;;;;;;5.35;3.50;;;13.80;99.90;;;;;;5053500;28;20452;-57
2022/07/28 05:06:53;;;;;;;6.10;3.63;;;13.80;99.90;;;;;;5051790;28;20021;-57
2022/07/28 05:09:20;;;;;;;7.68;3.70;;;13.80;99.90;;;;;;5053517;28;20142;-57
2022/07/28 05:11:46;;;;;;;9.10;3.85;;;13.80;99.90;;;;;;5053373;28;20029;-57
2022/07/28 05:14:11;;;;;;;11.93;4.10;;;13.80;99.90;;;;;;5053700;28;20036;-57
2022/07/28 05:16:37;;;;;;;8.05;4.15;;;13.80;99.90;;;;;;5053363;28;20013;-57
2022/07/28 05:19:03;;;;;;;9.07;4.18;;;13.70;99.90;;;;;;5053195;28;20108;-56
2022/07/28 05:21:28;;;;;;;9.60;3.85;;;13.70;99.90;;;;;;5052819;28;20452;-57
2022/07/28 05:23:54;;;;;;;6.03;3.65;;;13.80;99.90;;;;;;5053191;28;20037;-57
2022/07/28 05:26:20;;;;;;;10.02;3.97;;;13.80;99.90;;;;;;5053258;28;20023;-55
2022/07/28 05:28:46;;;;;;;11.52;3.88;;;13.80;99.90;;;;;;5052934;28;20539;-56
2022/07/28 05:31:11;;;;;;;12.35;3.60;;;13.80;99.90;;;;;;5053405;28;20079;-56
2022/07/28 05:33:37;;;;;;;10.18;4.05;;;13.80;99.90;;;;;;5052757;28;20029;-56
2022/07/28 05:36:03;;;;;;;7.40;4.00;;;13.80;99.90;;;;;;5052505;28;20082;-56
2022/07/28 05:38:30;;;;;;;8.93;4.10;;;13.70;99.90;;;;;;5052709;28;20036;-55
2022/07/28 05:40:56;;;;;;;6.07;3.75;;;13.80;99.90;;;;;;5053147;28;20025;-56
2022/07/28 05:43:22;;;;;;;6.05;4.00;;;13.80;99.90;;;;;;5052370;28;20493;-57
2022/07/28 05:45:48;;;;;;;13.00;4.50;;;13.80;99.90;;;;;;5052481;28;20024;-56
2022/07/28 05:48:18;;;;;;;8.23;3.92;;;13.90;99.90;;;;;;5052571;28;20083;-56
2022/07/28 05:50:44;;;;;;;12.60;3.97;;;14.00;99.90;;;;;;5052309;28;20559;-57
2022/07/28 05:53:10;;;;;;;11.95;4.88;;;14.10;99.90;;;;;;5052774;28;20398;-55
2022/07/28 05:55:36;;;;;;;10.20;4.88;;;14.20;99.90;;;;;;5052428;28;20029;-55
2022/07/28 05:58:02;;;;;;;10.82;4.60;;;14.30;99.90;;;;;;5052813;28;20022;-56
2022/07/28 06:00:27;;;;;;;8.73;4.80;;;14.30;99.90;;;;;;5052503;28;20100;-56
2022/07/28 06:02:53;;;;;;;8.48;4.90;;;14.40;99.90;;;;;;5052321;28;20410;-56
2022/07/28 06:05:21;;;;;;;8.70;4.63;;;14.50;99.90;;;;;;5052451;28;20035;-56
2022/07/28 06:07:48;;;;;;;15.30;4.72;;;14.60;99.90;;;;;;5052176;28;20021;-55
2022/07/28 06:10:16;;;;;;;10.30;4.32;;;14.80;99.90;;;;;;5052303;28;20032;-56
2022/07/28 06:12:45;;;;;;;7.60;3.58;;;14.90;99.90;;;;;;5052342;28;20059;-56
2022/07/28 06:15:13;;;;;;;11.38;4.00;;;15.20;99.90;;;;;;5052207;28;20044;-57
2022/07/28 06:17:40;;;;;;;10.13;3.80;;;15.50;99.90;;;;;;5052503;28;20098;-56
2022/07/28 06:20:06;;;;;;;9.95;3.67;;;15.80;99.90;;;;;;5051860;28;20029;-57
2022/07/28 06:22:49;;;;;;;8.95;3.67;;;16.10;99.90;;;;;;5052227;28;20524;-56
2022/07/28 06:25:26;;;;;;;4.75;3.22;;;16.30;99.90;;;;;;5052104;28;20045;-57
2022/07/28 06:27:54;;;;;;;7.80;3.40;;;16.70;99.90;;;;;;5051944;28;20048;-57
2022/07/28 06:30:20;;;;;;;8.23;3.30;;;17.60;99.90;;;;;;5051776;28;20086;-56
2022/07/28 06:32:47;;;;;;;8.88;3.30;;;17.80;99.90;;;;;;5051571;28;20013;-54
2022/07/28 06:35:15;;;;;;;6.57;2.90;;;18.00;99.90;;;;;;5051869;28;20028;-57
2022/07/28 06:37:51;;;;;;;7.45;2.72;;;18.50;99.90;;;;;;5050842;28;20385;-57
2022/07/28 06:40:18;;;;;;;9.27;3.03;;;18.90;99.90;;;;;;5051975;28;20063;-56
2022/07/28 06:42:45;;;;;;;11.55;2.88;;;19.30;99.90;;;;;;5051521;28;20379;-57
2022/07/28 06:45:12;;;;;;;5.72;2.60;;;20.00;99.90;;;;;;5051745;28;20037;-57
2022/07/28 06:47:38;;;;;;;8.75;2.53;;;20.20;99.90;;;;;;5051461;28;20017;-57
2022/07/28 06:50:04;;;;;;;6.97;2.88;;;20.30;99.90;;;;;;5051628;28;20040;-57
2022/07/28 06:52:32;;;;;;;4.75;2.08;;;20.50;99.90;;;;;;5050362;28;20179;-57
2022/07/28 06:54:59;;;;;;;4.53;2.35;;;21.10;99.90;;;;;;5051606;28;20025;-57
2022/07/28 06:57:26;;;;;;;6.10;2.13;;;21.60;99.90;;;;;;5051542;28;20494;-57
2022/07/28 06:59:52;;;;;;;3.05;1.60;;;22.20;99.90;;;;;;5051625;28;20029;-57
2022/07/28 07:02:18;;;;;;;3.20;1.90;;;22.70;99.90;;;;;;5051235;28;20106;-57
2022/07/28 07:04:44;;;;;;;2.72;1.90;;;23.00;99.90;;;;;;5051781;28;20068;-57
2022/07/28 07:07:11;;;;;;;3.05;1.60;;;23.10;99.90;;;;;;5051521;28;20493;-57
2022/07/28 07:09:38;;;;;;;5.13;1.70;;;23.30;99.90;;;;;;5051532;28;20108;-57
2022/07/28 07:12:04;;;;;;;1.83;1.23;;;23.70;99.90;;;;;;5051585;28;20032;-57
2022/07/28 07:14:30;;;;;;;4.90;1.70;;;23.90;99.90;;;;;;5051358;28;20438;-57
2022/07/28 07:16:56;;;;;;;4.97;1.48;;;24.60;99.90;;;;;;5051017;28;20090;-57
2022/07/28 07:19:21;;;;;;;2.13;1.40;;;25.20;99.90;;;;;;5051597;28;20056;-57
2022/07/28 07:21:48;;;;;;;2.40;1.20;;;25.20;99.90;;;;;;5051820;28;20029;-57
2022/07/28 07:24:14;;;;;;;2.00;1.13;;;25.90;99.90;;;;;;5051110;28;20044;-57
2022/07/28 07:26:39;;;;;;;2.60;0.80;;;26.60;99.90;;;;;;5050140;28;20025;-57
2022/07/28 07:29:06;;;;;;;2.63;0.93;;;26.70;99.10;;;;;;5051653;28;20105;-57
2022/07/28 07:31:35;;;;;;;2.70;1.20;;;26.10;98.60;;;;;;5050929;28;20083;-58
2022/07/28 07:34:02;;;;;;;2.65;0.90;;;26.10;99.60;;;;;;5051491;28;20021;-57
2022/07/28 07:36:28;;;;;;;2.35;0.98;;;26.00;99.90;;;;;;5051324;28;20024;-57
2022/07/28 07:38:53;;;;;;;5.03;1.20;;;26.50;99.50;;;;;;5051134;28;20547;-57
2022/07/28 07:41:19;;;;;;;1.73;1.08;;;27.30;98.20;;;;;;5051597;28;20160;-57
2022/07/28 07:43:46;;;;;;;2.38;1.30;;;27.60;96.80;;;;;;5050382;28;20128;-57
2022/07/28 07:46:12;;;;;;;2.83;1.73;;;27.60;96.20;;;;;;5051231;28;20021;-57
2022/07/28 07:48:37;;;;;;;2.22;1.38;;;27.90;95.70;;;;;;5051240;28;20148;-57
2022/07/28 07:51:04;;;;;;;3.55;1.50;;;27.70;96.20;;;;;;5051199;28;20071;-57
2022/07/28 07:53:29;;;;;;;2.88;1.50;;;28.10;95.00;;;;;;5051507;28;20022;-58
2022/07/28 07:55:56;;;;;;;2.70;1.30;;;29.00;95.00;;;;;;5051066;28;20021;-57
2022/07/28 07:58:21;;;;;;;1.70;1.30;;;29.70;92.80;;;;;;5051272;28;20040;-58
2022/07/28 08:00:47;;;;;;;1.98;1.20;;;29.60;91.90;;;;;;5049366;28;20037;-57
2022/07/28 08:03:16;;;;;;;2.97;1.40;;;30.10;91.50;;;;;;5052917;28;20501;-57
2022/07/28 08:05:42;;;;;;;2.15;1.38;;;30.30;92.00;;;;;;5054796;28;20028;-58
2022/07/28 08:08:08;;;;;;;2.55;1.60;;;30.90;90.60;;;;;;5054794;28;20398;-57
2022/07/28 08:10:36;;;;;;;3.10;1.50;;;31.80;90.10;;;;;;5054564;28;20025;-57
2022/07/28 08:13:03;;;;;;;2.85;1.67;;;31.40;87.70;;;;;;5053200;28;20029;-58
2022/07/28 08:15:29;;;;;;;2.45;1.63;;;30.60;90.30;;;;;;5054278;28;20028;-57
2022/07/28 08:17:55;;;;;;;1.60;1.50;;;30.20;89.10;;;;;;5054753;28;20111;-57
2022/07/28 08:20:21;;;;;;;2.95;1.70;;;29.70;88.90;;;;;;5053447;28;20029;-58
2022/07/28 08:22:52;;;;;;;2.05;1.30;;;30.20;90.50;;;;;;5054281;28;20032;-57
2022/07/28 08:25:18;;;;;;;2.95;1.60;;;30.70;87.60;;;;;;5054490;28;20033;-57
2022/07/28 08:27:44;;;;;;;4.03;1.45;;;31.60;87.40;;;;;;5054467;28;20052;-57
2022/07/28 08:30:10;;;;;;;1.90;1.10;;;31.70;87.60;;;;;;5053207;28;20029;-57
2022/07/28 08:32:36;;;;;;;2.13;1.50;;;32.50;86.10;;;;;;5054020;28;20017;-57
2022/07/28 08:35:03;;;;;;;3.85;1.27;;;32.80;85.70;;;;;;5053992;28;20028;-57
2022/07/28 08:37:29;;;;;;;2.22;1.23;;;33.70;82.30;;;;;;5054001;28;20071;-57
2022/07/28 08:39:55;;;;;;;1.75;1.10;;;33.40;79.10;;;;;;5053601;28;20033;-57
2022/07/28 08:42:39;;;;;;;2.40;1.20;;;32.70;79.90;;;;;;5052573;28;20041;-58
2022/07/28 08:45:06;;;;;;;2.42;1.23;;;32.90;81.20;;;;;;5051396;28;20035;-57
2022/07/28 08:47:34;;;;;;;2.80;1.10;;;33.80;80.80;;;;;;5050396;28;20485;-57
2022/07/28 08:50:00;;;;;;;1.52;0.82;;;34.60;79.30;;;;;;5053301;28;20091;-57
2022/07/28 08:52:31;;;;;;;1.50;0.90;;;33.50;78.30;;;;;;5053974;28;20028;-57
2022/07/28 08:55:00;;;;;;;5.65;1.02;;;33.00;77.80;;;;;;5053835;28;20029;-57
2022/07/28 08:57:44;;;;;;;3.30;1.23;;;32.70;78.90;;;;;;5053224;28;20048;-57
2022/07/28 09:00:11;;;;;;;2.35;1.35;;;34.40;78.90;;;;;;5053666;28;20490;-57
2022/07/28 09:02:40;;;;;;;2.10;0.90;;;34.70;79.00;;;;;;5052312;28;20021;-57
2022/07/28 09:05:08;;;;;;;1.80;1.00;;;35.30;77.90;;;;;;5052334;28;20037;-57
2022/07/28 09:07:37;;;;;;;1.55;1.00;;;36.10;72.70;;;;;;5052740;28;20024;-57
2022/07/28 09:10:12;;;;;;;2.17;0.90;;;35.20;72.20;;;;;;5053196;28;20035;-57
2022/07/28 09:12:38;;;;;;;2.10;1.10;;;34.30;74.60;;;;;;5050020;28;20017;-57
2022/07/28 09:15:07;;;;;;;2.30;1.20;;;33.50;75.50;;;;;;5052282;28;20021;-57
2022/07/28 09:17:33;;;;;;;1.80;1.00;;;32.80;75.70;;;;;;5049311;28;20036;-58
2022/07/28 09:19:59;;;;;;;2.83;1.00;;;34.50;76.10;;;;;;5053570;28;20155;-59
2022/07/28 09:22:25;;;;;;;4.32;1.30;;;36.40;72.00;;;;;;5052375;28;20053;-57
2022/07/28 09:24:52;;;;;;;1.98;1.23;;;37.50;70.40;;;;;;5052267;28;20505;-57
2022/07/28 09:27:17;;;;;;;2.13;1.00;;;37.70;69.90;;;;;;5053086;28;20017;-57
2022/07/28 09:29:57;;;;;;;2.05;1.10;;;36.90;69.00;;;;;;5051739;28;20031;-57
2022/07/28 09:32:22;;;;;;;2.17;1.38;;;35.60;71.20;;;;;;5051057;28;20036;-57
2022/07/28 09:34:49;;;;;;;1.95;1.10;;;34.10;72.60;;;;;;5052833;28;20029;-57
2022/07/28 09:37:19;;;;;;;2.33;1.00;;;33.90;74.10;;;;;;5051999;28;20029;-57
2022/07/28 09:39:46;;;;;;;1.98;1.30;;;34.70;73.00;;;;;;5052905;28;20549;-58
2022/07/28 09:42:12;;;;;;;1.15;0.90;;;35.20;70.80;;;;;;5052876;28;20107;-57
2022/07/28 09:44:38;;;;;;;2.80;1.00;;;36.20;69.50;;;;;;5052690;28;20029;-57
2022/07/28 09:47:23;;;;;;;2.75;1.02;;;35.80;70.90;;;;;;5052831;28;20517;-57
2022/07/28 09:49:49;;;;;;;2.65;1.10;;;35.20;70.50;;;;;;5054463;28;20036;-57
2022/07/28 09:52:29;;;;;;;2.85;1.00;;;37.80;67.20;;;;;;5052953;28;20486;-58
2022/07/28 09:55:06;;;;;;;3.03;1.00;;;39.50;66.10;;;;;;5052685;28;20645;-58
2022/07/28 09:57:34;;;;;;;2.15;1.15;;;39.80;63.20;;;;;;5052638;28;20036;-57
2022/07/28 10:00:00;;;;;;;1.27;0.90;;;40.80;62.10;;;;;;5052719;28;20041;-57
2022/07/28 10:02:30;;;;;;;1.80;1.05;;;40.70;62.80;;;;;;5052784;28;20029;-57
2022/07/28 10:04:57;;;;;;;1.77;1.20;;;41.90;62.10;;;;;;5052176;28;20440;-57
2022/07/28 10:07:23;;;;;;;3.10;0.93;;;42.50;60.10;;;;;;5052308;28;20075;-58
2022/07/28 10:10:00;;;;;;;3.17;1.20;;;42.30;59.60;;;;;;5052256;28;20025;-58
2022/07/28 10:12:31;;;;;;;2.05;1.00;;;39.20;61.90;;;;;;5052700;28;20470;-57
2022/07/28 10:14:58;;;;;;;1.85;0.90;;;39.80;61.80;;;;;;5052662;28;20025;-57
2022/07/28 10:17:28;;;;;;;1.05;0.95;;;38.70;63.60;;;;;;5052384;28;20022;-57
2022/07/28 10:19:57;;;;;;;1.45;1.00;;;42.50;59.00;;;;;;5052432;28;20033;-57
2022/07/28 10:22:27;;;;;;;1.58;0.88;;;41.90;58.20;;;;;;5052124;28;20071;-57
2022/07/28 10:24:53;;;;;;;2.92;1.10;;;37.90;61.50;;;;;;5051694;28;20589;-57
2022/07/28 10:27:26;;;;;;;1.23;0.90;;;38.10;63.10;;;;;;5052423;28;20440;-57
2022/07/28 10:29:57;;;;;;;1.58;1.00;;;38.10;64.00;;;;;;5052263;28;20108;-57
2022/07/28 10:32:24;;;;;;;2.53;1.00;;;37.30;63.20;;;;;;5052048;28;20029;-57
2022/07/28 10:34:54;;;;;;;2.47;1.00;;;37.40;63.80;;;;;;5051905;28;20033;-58
2022/07/28 10:37:26;;;;;;;4.63;1.50;;;37.20;63.00;;;;;;5052053;28;20033;-57
2022/07/28 10:40:10;;;;;;;1.77;1.00;;;35.90;66.70;;;;;;5051853;28;20025;-57
2022/07/28 10:42:38;;;;;;;2.08;1.00;;;36.50;65.40;;;;;;5052446;28;20383;-57
2022/07/28 10:45:14;;;;;;;3.50;1.00;;;36.10;64.80;;;;;;5051938;28;20139;-57
2022/07/28 10:47:40;;;;;;;1.63;1.00;;;35.00;65.60;;;;;;5052066;28;20057;-57
2022/07/28 10:50:07;;;;;;;1.55;0.80;;;35.60;68.10;;;;;;5052074;28;20031;-57
2022/07/28 10:52:35;;;;;;;1.50;0.90;;;35.20;67.80;;;;;;5052472;28;20456;-57
2022/07/28 10:55:27;;;;;;;2.88;0.80;;;36.00;66.20;;;;;;5051610;28;20029;-57
2022/07/28 10:58:09;;;;;;;1.67;0.73;;;35.90;66.90;;;;;;5052080;28;20037;-57
2022/07/28 11:00:48;;;;;;;2.70;1.05;;;35.40;68.00;;;;;;5051965;28;20474;-57
2022/07/28 11:03:37;;;;;;;1.63;1.00;;;35.60;69.40;;;;;;5051896;28;20036;-57
2022/07/28 11:06:44;;;;;;;1.58;0.90;;;34.60;69.30;;;;;;5052286;28;20067;-57
2022/07/28 11:09:15;;;;;;;2.15;0.90;;;34.40;69.30;;;;;;5029756;28;20025;-57
2022/07/28 11:11:45;;;;;;;1.55;0.93;;;35.00;69.70;;;;;;5029635;28;20056;-57
2022/07/28 11:14:25;;;;;;;1.52;0.90;;;35.00;68.90;;;;;;5029762;28;20053;-58
2022/07/28 11:17:00;;;;;;;2.35;1.00;;;36.00;66.20;;;;;;5029636;28;20065;-57
2022/07/28 11:19:50;;;;;;;1.73;1.00;;;36.00;67.40;;;;;;5029669;28;20040;-55
2022/07/28 11:22:20;;;;;;;1.98;0.82;;;35.50;64.40;;;;;;5024752;28;20196;-58
2022/07/28 11:24:58;;;;;;;2.50;0.80;;;36.20;64.30;;;;;;5029177;28;20337;-57
2022/07/28 11:27:41;;;;;;;1.35;0.90;;;35.40;65.70;;;;;;5029694;28;20045;-57
2022/07/28 11:30:17;;;;;;;1.42;0.80;;;34.80;67.70;;;;;;5030000;28;20060;-56
2022/07/28 11:32:49;;;;;;;2.47;0.90;;;33.90;66.40;;;;;;5029604;28;20033;-57
2022/07/28 11:35:18;;;;;;;2.35;0.75;;;33.10;67.60;;;;;;5029486;28;20452;-57
2022/07/28 11:38:02;;;;;;;1.77;0.85;;;33.60;68.10;;;;;;5031856;28;20026;-58
2022/07/28 11:40:32;;;;;;;1.40;0.80;;;33.80;69.70;;;;;;5033485;28;20660;-57
2022/07/28 11:43:19;;;;;;;1.17;0.70;;;33.70;68.30;;;;;;5034583;28;20053;-57
2022/07/28 11:45:51;;;;;;;1.58;0.80;;;33.80;67.40;;;;;;5035655;28;20029;-58
2022/07/28 11:48:22;;;;;;;2.67;0.90;;;34.10;69.00;;;;;;5035376;28;20029;-57
2022/07/28 11:51:03;;;;;;;1.40;0.80;;;34.40;67.80;;;;;;5035485;28;20367;-57
2022/07/28 11:53:49;;;;;;;0.82;0.70;;;34.10;68.70;;;;;;5034958;28;20482;-57
2022/07/28 11:56:21;;;;;;;2.55;0.82;;;33.80;69.10;;;;;;5035351;28;20025;-57
2022/07/28 11:58:59;;;;;;;1.95;0.77;;;32.70;70.10;;;;;;5035267;28;20021;-57
2022/07/28 12:01:25;;;;;;;1.70;0.70;;;31.90;72.40;;;;;;5034071;28;20044;-57
2022/07/28 12:03:53;;;;;;;2.10;0.85;;;32.80;72.00;;;;;;5035298;28;20604;-57
2022/07/28 12:06:19;;;;;;;1.63;0.88;;;33.50;68.30;;;;;;5034865;28;20037;-57
2022/07/28 12:08:55;;;;;;;2.10;1.00;;;33.00;70.40;;;;;;5034963;28;20104;-58
2022/07/28 12:11:24;;;;;;;1.23;0.80;;;32.00;71.10;;;;;;5035464;28;20147;-57
2022/07/28 12:14:03;;;;;;;1.83;0.90;;;32.30;70.30;;;;;;5035191;28;20053;-57
2022/07/28 12:16:30;;;;;;;1.80;0.88;;;32.90;69.80;;;;;;5035018;28;20505;-58
2022/07/28 12:18:56;;;;;;;3.05;0.90;;;32.50;69.60;;;;;;5033579;28;20048;-57
2022/07/28 12:21:45;;;;;;;1.25;0.80;;;31.90;70.80;;;;;;5034465;28;20091;-57
2022/07/28 12:24:16;;;;;;;1.88;0.80;;;32.30;71.10;;;;;;5034693;28;20021;-58
2022/07/28 12:26:42;;;;;;;1.52;1.10;;;32.50;71.00;;;;;;5035291;28;20021;-58
2022/07/28 12:29:14;;;;;;;1.25;0.75;;;31.60;71.30;;;;;;5034896;28;20033;-57
2022/07/28 12:32:12;;;;;;;1.13;0.90;;;31.80;71.60;;;;;;5034628;28;20032;-58
2022/07/28 12:34:42;;;;;;;2.03;1.15;;;32.60;72.80;;;;;;5012569;28;20038;-57
2022/07/28 12:37:08;;;;;;;2.92;0.95;;;32.00;71.80;;;;;;5012268;28;20046;-58
2022/07/28 12:39:38;;;;;;;2.35;0.85;;;32.10;70.40;;;;;;5031751;28;20529;-57
2022/07/28 12:42:07;;;;;;;2.35;0.80;;;32.20;72.40;;;;;;5032500;28;20131;-57
2022/07/28 12:44:46;;;;;;;1.65;1.02;;;31.70;72.80;;;;;;5032194;28;20057;-57
2022/07/28 12:47:24;;;;;;;2.40;0.82;;;32.20;73.10;;;;;;5032201;28;20040;-57
2022/07/28 12:50:07;;;;;;;1.88;0.95;;;33.20;70.10;;;;;;5031008;28;20023;-57
2022/07/28 12:52:33;;;;;;;1.30;0.80;;;32.50;71.90;;;;;;5032188;28;20068;-57
2022/07/28 12:54:58;;;;;;;1.45;0.90;;;31.60;73.10;;;;;;5032407;28;20030;-57
2022/07/28 12:57:46;;;;;;;1.55;0.90;;;31.90;71.50;;;;;;5032004;28;20148;-57
2022/07/28 13:00:13;;;;;;;2.10;0.80;;;31.20;72.00;;;;;;5032299;28;20494;-57
2022/07/28 13:02:39;;;;;;;1.40;0.90;;;31.50;71.90;;;;;;5031774;28;20453;-57